createdAt,value
2018-11-25T01:25:03.412Z,5.65
2018-11-25T01:42:27.596Z,5.79
2018-11-25T01:48:07.637Z,5.88
2018-11-25T01:59:14.378Z,5.69
2018-11-25T02:06:05.505Z,5.81
2018-11-25T02:19:20.225Z,5.69
2018-11-25T02:24:26.212Z,5.81
2018-11-25T02:29:35.015Z,5.85
2018-11-25T02:34:38.344Z,5.61
2018-11-25T02:39:41.351Z,5.78
2018-11-25T02:44:44.395Z,5.74
2018-11-25T02:49:47.434Z,5.67
2018-11-25T02:54:50.463Z,5.60
2018-11-25T02:59:53.516Z,5.57
2018-11-25T03:04:56.559Z,5.63
2018-11-25T03:09:59.593Z,5.52
2018-11-25T03:15:02.721Z,5.50
2018-11-25T03:20:09.429Z,5.62
2018-11-25T03:25:16.268Z,5.60
2018-11-25T03:30:21.026Z,5.58
2018-11-25T03:35:24.064Z,5.54
2018-11-25T03:40:27.111Z,5.50
2018-11-25T03:45:30.247Z,5.52
2018-11-25T03:50:34.424Z,5.42
2018-11-25T03:55:37.737Z,5.43
2018-11-25T04:00:40.890Z,5.27
2018-11-25T04:05:44.246Z,5.44
2018-11-25T04:10:47.505Z,5.52
2018-11-25T04:15:50.744Z,4.94
2018-11-25T04:20:53.855Z,5.46
2018-11-25T04:25:57.160Z,5.42
2018-11-25T04:31:00.342Z,5.51
2018-11-25T04:36:03.476Z,5.41
2018-11-25T04:41:06.547Z,5.32
2018-11-25T04:46:10.104Z,4.71
2018-11-25T04:51:13.148Z,5.38
2018-11-25T04:56:16.260Z,5.54
2018-11-25T05:01:19.540Z,5.49
2018-11-25T05:06:22.679Z,5.55
2018-11-25T05:11:25.806Z,5.36
2018-11-25T05:16:29.486Z,5.50
2018-11-25T05:21:32.639Z,5.50
2018-11-25T05:26:35.837Z,5.48
2018-11-25T05:31:39.158Z,5.56
2018-11-25T05:36:42.388Z,5.41
2018-11-25T05:41:45.534Z,5.59
2018-11-25T05:46:48.740Z,5.74
2018-11-25T05:51:52.440Z,5.71
2018-11-25T05:56:56.263Z,5.72
2018-11-25T06:01:59.494Z,5.72
2018-11-25T06:07:02.630Z,5.73
2018-11-25T06:12:07.358Z,5.69
2018-11-25T06:17:10.502Z,5.78
2018-11-25T06:22:13.542Z,5.78
2018-11-25T06:27:16.724Z,5.90
2018-11-25T06:32:20.128Z,5.89
2018-11-25T06:37:25.721Z,5.81
2018-11-25T06:42:28.923Z,5.72
2018-11-25T06:47:32.017Z,5.76
2018-11-25T06:52:35.107Z,5.90
2018-11-25T06:57:38.244Z,5.79
2018-11-25T07:02:41.611Z,5.92
2018-11-25T07:07:44.692Z,5.92
2018-11-25T07:12:49.399Z,5.92
2018-11-25T07:17:52.528Z,5.93
2018-11-25T07:22:55.852Z,5.94
2018-11-25T07:27:58.905Z,6.01
2018-11-25T07:33:01.945Z,5.80
2018-11-25T07:38:05.605Z,5.88
2018-11-25T07:43:08.957Z,5.89
2018-11-25T07:48:12.226Z,5.86
2018-11-25T07:53:15.442Z,6.01
2018-11-25T07:58:18.505Z,6.12
2018-11-25T08:03:21.608Z,6.16
2018-11-25T08:08:24.744Z,6.08
2018-11-25T08:13:27.883Z,6.20
2018-11-25T08:18:31.094Z,6.23
2018-11-25T08:23:34.195Z,6.33
2018-11-25T08:28:37.309Z,6.37
2018-11-25T08:33:40.442Z,6.39
2018-11-25T08:38:43.485Z,6.43
2018-11-25T08:43:46.607Z,6.38
2018-11-25T08:48:49.654Z,6.43
2018-11-25T08:53:52.729Z,6.40
2018-11-25T08:58:55.826Z,6.38
2018-11-25T09:03:58.960Z,6.41
2018-11-25T09:09:02.108Z,6.48
2018-11-25T09:14:05.292Z,6.44
2018-11-25T09:19:08.377Z,6.53
2018-11-25T09:24:11.488Z,6.52
2018-11-25T09:29:14.603Z,6.12
2018-11-25T09:34:17.685Z,6.56
2018-11-25T09:39:20.811Z,6.51
2018-11-25T09:44:23.903Z,6.44
2018-11-25T09:49:26.983Z,6.47
2018-11-25T09:54:30.084Z,6.62
2018-11-25T09:59:33.181Z,6.60
2018-11-25T10:04:36.394Z,6.55
2018-11-25T10:09:39.527Z,6.00
2018-11-25T10:14:42.680Z,5.52
2018-11-25T10:19:45.768Z,6.52
2018-11-25T10:24:48.870Z,6.58
2018-11-25T10:29:51.975Z,6.65
2018-11-25T10:34:54.979Z,6.65
2018-11-25T10:39:58.035Z,6.53
2018-11-25T10:45:01.098Z,6.62
2018-11-25T10:50:04.428Z,6.69
2018-11-25T10:55:09.926Z,6.66
2018-11-25T11:00:29.388Z,6.45
2018-11-25T11:05:38.092Z,6.49
2018-11-25T11:10:41.172Z,6.63
2018-11-25T11:15:44.230Z,6.55
2018-11-25T11:20:47.329Z,6.57
2018-11-25T11:25:50.369Z,6.62
2018-11-25T11:30:53.435Z,6.57
2018-11-25T11:35:56.489Z,6.55
2018-11-25T11:40:59.589Z,6.57
2018-11-25T11:46:02.700Z,6.65
2018-11-25T11:51:05.828Z,6.58
2018-11-25T11:56:08.908Z,6.65
2018-11-25T12:01:12.566Z,6.75
2018-11-25T12:06:15.637Z,6.66
2018-11-25T12:11:18.927Z,6.70
2018-11-25T12:16:21.942Z,6.72
2018-11-25T12:21:25.316Z,6.39
2018-11-25T12:26:28.451Z,6.89
2018-11-25T12:31:31.777Z,6.65
2018-11-25T12:36:34.823Z,6.54
2018-11-25T12:41:38.064Z,6.71
2018-11-25T12:46:41.305Z,6.76
2018-11-25T12:51:45.158Z,6.81
2018-11-25T12:56:51.820Z,6.66
2018-11-25T13:01:51.882Z,6.88
2018-11-25T13:06:54.956Z,6.68
2018-11-25T13:11:58.141Z,6.84
2018-11-25T13:17:01.249Z,6.81
2018-11-25T13:22:04.584Z,6.91
2018-11-25T13:27:08.446Z,6.84
2018-11-25T13:32:12.265Z,6.97
2018-11-25T13:37:15.383Z,6.71
2018-11-25T13:42:18.484Z,6.68
2018-11-25T13:47:21.609Z,6.97
2018-11-25T13:52:24.775Z,6.87
2018-11-25T13:57:27.870Z,6.72
2018-11-25T14:02:30.968Z,6.77
2018-11-25T14:07:34.043Z,6.94
2018-11-25T14:12:37.207Z,7.06
2018-11-25T14:17:40.368Z,6.93
2018-11-25T14:22:43.479Z,6.89
2018-11-25T14:27:49.036Z,6.78
2018-11-25T14:32:52.224Z,6.99
2018-11-25T14:37:55.273Z,7.06
2018-11-25T14:42:58.383Z,7.05
2018-11-25T14:48:01.437Z,7.08
2018-11-25T14:53:04.918Z,6.89
2018-11-25T14:58:07.993Z,7.04
2018-11-25T15:03:11.026Z,6.84
2018-11-25T15:08:19.560Z,6.89
2018-11-25T15:13:22.621Z,6.97
2018-11-25T15:18:25.663Z,7.10
2018-11-25T15:23:28.688Z,7.00
2018-11-25T15:28:31.716Z,7.03
2018-11-25T15:33:35.406Z,6.88
2018-11-25T15:38:38.455Z,6.92
2018-11-25T15:43:41.527Z,6.90
2018-11-25T15:48:44.575Z,6.82
2018-11-25T15:53:47.639Z,6.91
2018-11-25T15:58:50.716Z,6.89
2018-11-25T16:03:53.792Z,6.98
2018-11-25T16:08:56.886Z,7.03
2018-11-25T16:13:59.940Z,6.91
2018-11-25T16:19:03.213Z,6.87
2018-11-25T16:24:07.779Z,6.91
2018-11-25T16:29:13.937Z,6.97
2018-11-25T16:34:17.021Z,6.84
2018-11-25T16:39:20.143Z,6.98
2018-11-25T16:44:23.272Z,6.88
2018-11-25T16:49:26.328Z,7.03
2018-11-25T16:54:29.407Z,7.16
2018-11-25T16:59:32.479Z,7.15
2018-11-25T17:04:35.550Z,7.01
2018-11-25T17:09:38.662Z,7.25
2018-11-25T17:14:41.890Z,7.16
2018-11-25T17:19:44.968Z,7.09
2018-11-25T17:24:48.235Z,6.99
2018-11-25T17:29:51.331Z,7.17
2018-11-25T17:34:54.393Z,7.01
2018-11-25T17:39:57.524Z,7.09
2018-11-25T17:45:00.660Z,7.17
2018-11-25T17:50:07.872Z,7.06
2018-11-25T17:55:12.160Z,6.97
2018-11-25T18:00:38.548Z,6.96
2018-11-25T18:05:41.681Z,7.02
2018-11-25T18:10:44.748Z,7.08
2018-11-25T18:15:48.368Z,7.29
2018-11-25T18:20:56.517Z,6.99
2018-11-25T18:25:59.748Z,7.16
2018-11-25T18:31:02.912Z,7.33
2018-11-25T18:36:08.665Z,7.33
2018-11-25T18:41:11.790Z,7.19
2018-11-25T18:46:14.858Z,7.30
2018-11-25T18:51:18.160Z,7.47
2018-11-25T18:56:21.226Z,7.41
2018-11-25T19:02:10.448Z,7.35
2018-11-25T19:07:13.671Z,7.37
2018-11-25T19:12:16.752Z,7.36
2018-11-25T19:17:19.812Z,7.38
2018-11-25T19:22:23.141Z,7.36
2018-11-25T19:27:26.291Z,7.30
2018-11-25T19:32:29.388Z,7.31
2018-11-25T19:37:32.685Z,7.16
2018-11-25T19:42:36.126Z,7.20
2018-11-25T19:47:39.246Z,7.07
2018-11-25T19:52:42.317Z,7.19
2018-11-25T19:57:45.406Z,7.16
2018-11-25T20:02:49.399Z,7.31
2018-11-25T20:07:52.132Z,7.09
2018-11-25T20:12:57.657Z,7.12
2018-11-25T20:18:01.309Z,7.35
2018-11-25T20:23:05.848Z,7.16
2018-11-25T20:28:08.972Z,7.39
2018-11-25T20:33:17.899Z,7.35
2018-11-25T20:38:26.521Z,7.33
2018-11-25T20:43:29.619Z,7.51
2018-11-25T20:48:32.684Z,7.34
2018-11-25T20:53:41.481Z,7.19
2018-11-25T20:58:44.572Z,7.24
2018-11-25T21:03:47.672Z,7.13
2018-11-25T21:08:50.724Z,7.28
2018-11-25T21:13:53.811Z,7.20
2018-11-25T21:18:56.868Z,7.20
2018-11-25T21:23:59.891Z,7.16
2018-11-25T21:29:03.048Z,7.13
2018-11-25T21:34:06.105Z,7.10
2018-11-25T21:39:09.857Z,7.28
2018-11-25T21:44:12.935Z,7.34
2018-11-25T21:49:16.006Z,7.31
2018-11-25T21:54:19.074Z,7.30
2018-11-25T21:59:22.146Z,7.32
2018-11-25T22:04:25.312Z,7.41
2018-11-25T22:09:28.348Z,7.33
2018-11-25T22:14:32.185Z,7.41
2018-11-25T22:19:35.189Z,7.34
2018-11-25T22:24:38.361Z,7.27
2018-11-25T22:29:41.502Z,7.41
2018-11-25T22:34:44.613Z,7.29
2018-11-25T22:39:47.727Z,7.26
2018-11-25T22:44:50.819Z,7.37
2018-11-25T22:49:53.920Z,7.34
2018-11-25T22:54:56.996Z,7.28
2018-11-25T23:00:00.041Z,7.48
2018-11-25T23:05:20.147Z,7.35
2018-11-25T23:10:23.195Z,7.47
2018-11-25T23:15:26.348Z,7.56
2018-11-25T23:20:29.424Z,7.54
2018-11-25T23:25:32.479Z,7.74
2018-11-25T23:30:35.534Z,7.90
2018-11-25T23:35:38.593Z,7.89
2018-11-25T23:40:41.655Z,7.77
2018-11-25T23:45:44.743Z,7.86
2018-11-25T23:50:47.874Z,7.99
2018-11-25T23:55:51.169Z,7.94
